createdAt,value
2023-10-10T00:01:29.648Z,48.37
2023-10-10T00:04:36.016Z,48.37
2023-10-10T00:07:43.022Z,48.42
2023-10-10T00:10:48.494Z,48.38
2023-10-10T00:13:54.157Z,48.22
2023-10-10T00:17:03.431Z,48.42
2023-10-10T00:20:11.744Z,48.66
2023-10-10T00:23:23.285Z,48.73
2023-10-10T00:26:29.789Z,48.89
2023-10-10T00:29:36.485Z,48.99
2023-10-10T00:32:44.745Z,48.94
2023-10-10T00:35:52.693Z,48.52
2023-10-10T00:39:01.480Z,48.34
2023-10-10T00:42:09.485Z,48.20
2023-10-10T00:45:17.458Z,48.14
2023-10-10T00:48:25.695Z,48.10
2023-10-10T00:51:31.517Z,48.33
2023-10-10T00:54:41.043Z,48.29
2023-10-10T00:57:47.788Z,48.36
2023-10-10T01:00:55.916Z,48.44
2023-10-10T01:04:04.627Z,48.41
2023-10-10T01:07:17.919Z,48.27
2023-10-10T01:10:27.351Z,48.44
2023-10-10T01:13:35.428Z,48.46
2023-10-10T01:16:41.451Z,48.44
2023-10-10T01:19:50.512Z,48.33
2023-10-10T01:22:56.942Z,48.57
2023-10-10T01:26:05.311Z,48.57
2023-10-10T01:29:13.391Z,48.61
2023-10-10T01:32:19.587Z,48.77
2023-10-10T01:35:25.203Z,48.71
2023-10-10T01:38:54.199Z,48.67
2023-10-10T01:42:01.383Z,48.40
2023-10-10T01:45:09.627Z,48.49
2023-10-10T01:48:17.808Z,48.66
2023-10-10T01:51:26.048Z,48.33
2023-10-10T01:54:44.643Z,48.39
2023-10-10T01:57:49.769Z,48.30
2023-10-10T02:00:58.239Z,48.33
2023-10-10T02:04:04.309Z,48.13
2023-10-10T02:07:13.232Z,48.15
2023-10-10T02:10:21.286Z,48.11
2023-10-10T02:13:28.273Z,47.94
2023-10-10T02:16:36.407Z,47.79
2023-10-10T02:19:36.943Z,48.00
2023-10-10T02:22:30.945Z,47.84
2023-10-10T02:25:34.793Z,47.75
2023-10-10T02:28:54.012Z,47.72
2023-10-10T02:32:20.403Z,47.48
2023-10-10T02:35:38.126Z,47.50
2023-10-10T02:38:53.000Z,47.57
2023-10-10T02:41:59.631Z,47.61
2023-10-10T02:45:06.022Z,47.73
2023-10-10T02:48:15.637Z,47.80
2023-10-10T02:51:23.104Z,47.82
2023-10-10T02:54:32.117Z,47.87
2023-10-10T02:57:38.265Z,47.68
2023-10-10T03:00:45.876Z,47.64
2023-10-10T03:03:52.452Z,47.38
2023-10-10T03:06:58.528Z,47.22
2023-10-10T03:10:22.955Z,47.04
2023-10-10T03:13:42.841Z,46.87
2023-10-10T03:16:52.167Z,46.74
2023-10-10T03:20:00.499Z,46.83
2023-10-10T03:23:14.278Z,46.72
2023-10-10T03:26:22.489Z,46.74
2023-10-10T03:29:46.232Z,46.56
2023-10-10T03:32:57.325Z,46.33
2023-10-10T03:36:22.678Z,45.90
2023-10-10T03:39:33.781Z,45.79
2023-10-10T03:42:58.525Z,46.34
2023-10-10T03:46:22.689Z,46.17
2023-10-10T03:49:46.658Z,46.13
2023-10-10T03:53:10.008Z,46.23
2023-10-10T03:56:34.847Z,46.10
2023-10-10T03:59:58.092Z,46.00
2023-10-10T04:03:24.582Z,46.13
2023-10-10T04:06:49.203Z,46.14
2023-10-10T04:10:11.995Z,46.04
2023-10-10T04:13:36.306Z,46.21
2023-10-10T04:17:00.796Z,46.91
2023-10-10T04:20:17.738Z,47.04
2023-10-10T04:23:42.807Z,46.96
2023-10-10T04:27:08.303Z,46.94
2023-10-10T04:30:30.641Z,46.61
2023-10-10T04:33:54.941Z,46.95
2023-10-10T04:37:18.253Z,46.83
2023-10-10T04:40:43.623Z,46.92
2023-10-10T04:44:08.328Z,47.02
2023-10-10T04:47:31.830Z,47.11
2023-10-10T04:50:55.359Z,47.06
2023-10-10T04:54:19.282Z,46.95
2023-10-10T04:57:43.067Z,46.76
2023-10-10T05:01:07.503Z,46.80
2023-10-10T05:04:32.812Z,46.30
2023-10-10T05:07:56.313Z,46.66
2023-10-10T05:11:19.933Z,46.62
2023-10-10T05:14:44.129Z,46.52
2023-10-10T05:18:08.439Z,46.42
2023-10-10T05:21:36.612Z,46.17
2023-10-10T05:24:47.007Z,46.09
2023-10-10T05:28:09.650Z,46.04
2023-10-10T05:31:18.394Z,45.79
2023-10-10T05:34:24.047Z,45.82
2023-10-10T05:37:29.782Z,45.53
2023-10-10T05:40:39.218Z,45.42
2023-10-10T05:43:45.264Z,45.24
2023-10-10T05:46:52.226Z,44.80
2023-10-10T05:50:13.602Z,44.81
2023-10-10T05:53:22.611Z,44.40
2023-10-10T05:56:31.660Z,44.54
2023-10-10T05:59:38.910Z,44.13
2023-10-10T06:02:44.904Z,43.54
2023-10-10T06:05:55.862Z,42.96
2023-10-10T06:09:03.169Z,42.94
2023-10-10T06:12:15.258Z,42.82
2023-10-10T06:15:25.815Z,43.10
2023-10-10T06:18:31.414Z,43.02
2023-10-10T06:21:41.008Z,43.12
2023-10-10T06:24:47.366Z,43.19
2023-10-10T06:27:58.252Z,42.82
2023-10-10T06:31:07.812Z,42.24
2023-10-10T06:34:15.595Z,42.26
2023-10-10T06:37:20.995Z,42.50
2023-10-10T06:40:33.555Z,42.29
2023-10-10T06:43:40.978Z,42.45
2023-10-10T06:46:46.042Z,42.33
2023-10-10T06:50:04.000Z,42.38
2023-10-10T06:53:11.681Z,42.12
2023-10-10T06:56:25.702Z,41.78
2023-10-10T06:59:33.183Z,41.71
2023-10-10T07:02:41.773Z,41.57
2023-10-10T07:05:50.089Z,41.09
2023-10-10T07:09:03.417Z,40.75
2023-10-10T07:12:18.951Z,40.30
2023-10-10T07:15:24.939Z,39.81
2023-10-10T07:18:31.408Z,39.37
2023-10-10T07:21:43.244Z,38.80
2023-10-10T07:24:49.725Z,38.71
2023-10-10T07:27:55.348Z,38.05
2023-10-10T07:31:09.271Z,38.23
2023-10-10T07:34:17.157Z,38.28
2023-10-10T07:37:24.543Z,38.25
2023-10-10T07:40:33.296Z,37.55
2023-10-10T07:43:40.043Z,37.68
2023-10-10T07:46:51.025Z,37.31
2023-10-10T07:50:06.972Z,36.80
2023-10-10T07:53:14.654Z,36.47
2023-10-10T07:56:22.427Z,36.60
2023-10-10T07:59:28.973Z,36.49
2023-10-10T08:02:36.777Z,36.24
2023-10-10T08:05:44.360Z,35.78
2023-10-10T08:08:50.765Z,35.79
2023-10-10T08:11:58.752Z,35.44
2023-10-10T08:15:07.543Z,36.27
2023-10-10T08:18:16.440Z,36.21
2023-10-10T08:21:36.727Z,36.40
2023-10-10T08:24:49.244Z,35.85
2023-10-10T08:27:56.696Z,35.84
2023-10-10T08:31:04.037Z,35.17
2023-10-10T08:34:10.754Z,34.95
2023-10-10T08:37:18.069Z,34.57
2023-10-10T08:40:26.638Z,34.58
2023-10-10T08:43:34.598Z,34.65
2023-10-10T08:46:52.487Z,34.89
2023-10-10T08:49:59.331Z,35.22
2023-10-10T08:53:07.892Z,34.92
2023-10-10T08:56:15.407Z,35.00
2023-10-10T08:59:27.237Z,34.91
2023-10-10T09:02:35.726Z,34.96
2023-10-10T09:05:42.122Z,35.02
2023-10-10T09:12:09.737Z,34.96
2023-10-10T09:15:12.951Z,35.18
2023-10-10T09:18:34.238Z,35.38
2023-10-10T09:21:39.753Z,34.82
2023-10-10T09:24:49.192Z,34.20
2023-10-10T09:27:56.780Z,32.99
2023-10-10T09:31:18.080Z,32.29
2023-10-10T09:34:26.467Z,33.43
2023-10-10T09:37:35.282Z,33.49
2023-10-10T09:40:41.304Z,33.65
2023-10-10T09:43:49.004Z,32.67
2023-10-10T09:46:50.639Z,32.04
2023-10-10T09:50:06.651Z,31.14
2023-10-10T09:53:15.543Z,31.07
2023-10-10T09:56:21.760Z,31.33
2023-10-10T09:59:32.674Z,30.40
2023-10-10T10:02:52.353Z,30.56
2023-10-10T10:06:00.732Z,28.97
2023-10-10T10:09:46.504Z,29.26
2023-10-10T10:12:59.188Z,29.54
2023-10-10T10:16:46.594Z,29.02
2023-10-10T10:19:57.498Z,29.70
2023-10-10T10:23:08.459Z,29.75
2023-10-10T10:26:23.468Z,29.19
2023-10-10T10:29:48.330Z,29.84
2023-10-10T10:33:01.540Z,29.57
2023-10-10T10:36:18.162Z,29.20
2023-10-10T10:39:37.201Z,29.21
2023-10-10T10:42:45.260Z,29.24
2023-10-10T10:45:53.780Z,29.39
2023-10-10T10:49:03.665Z,28.81
2023-10-10T10:52:23.148Z,29.66
2023-10-10T10:55:31.865Z,29.61
2023-10-10T10:58:39.009Z,29.69
2023-10-10T11:01:44.210Z,29.28
2023-10-10T11:04:51.620Z,29.44
2023-10-10T11:08:04.268Z,29.55
2023-10-10T11:11:11.418Z,29.21
2023-10-10T11:14:21.136Z,29.34
2023-10-10T11:17:30.873Z,29.52
2023-10-10T11:20:37.233Z,28.72
2023-10-10T11:23:45.903Z,28.96
2023-10-10T11:26:52.784Z,28.88
2023-10-10T11:30:04.812Z,28.82
2023-10-10T11:33:12.307Z,28.66
2023-10-10T11:36:47.804Z,28.72
2023-10-10T11:39:57.750Z,28.60
2023-10-10T11:43:04.562Z,28.05
2023-10-10T11:46:10.522Z,27.41
2023-10-10T11:49:17.722Z,27.25
2023-10-10T11:52:35.309Z,26.91
2023-10-10T11:55:43.124Z,27.62
2023-10-10T11:58:51.491Z,27.58
2023-10-10T12:02:00.407Z,27.68
2023-10-10T12:05:07.104Z,27.07
2023-10-10T12:08:16.560Z,27.14
2023-10-10T12:11:24.537Z,27.15
2023-10-10T12:14:32.327Z,27.02
2023-10-10T12:17:39.852Z,26.62
2023-10-10T12:20:48.247Z,27.53
2023-10-10T12:24:01.444Z,27.50
2023-10-10T12:27:04.459Z,26.77
2023-10-10T12:30:13.076Z,27.07
2023-10-10T12:33:24.148Z,27.37
2023-10-10T12:36:32.779Z,26.84
2023-10-10T12:39:39.149Z,27.23
2023-10-10T12:42:47.051Z,26.81
2023-10-10T12:45:55.993Z,26.75
2023-10-10T12:49:01.579Z,26.62
2023-10-10T12:52:09.079Z,26.11
2023-10-10T12:55:17.045Z,26.12
2023-10-10T12:58:26.943Z,26.60
2023-10-10T13:01:32.795Z,26.42
2023-10-10T13:04:44.142Z,26.30
2023-10-10T13:07:51.312Z,26.67
2023-10-10T13:11:03.678Z,26.52
2023-10-10T13:14:19.833Z,25.81
2023-10-10T13:17:38.683Z,26.15
2023-10-10T13:20:46.503Z,25.79
2023-10-10T13:23:53.294Z,26.49
2023-10-10T13:27:01.391Z,26.25
2023-10-10T13:30:08.257Z,25.68
2023-10-10T13:33:15.571Z,25.95
2023-10-10T13:36:25.712Z,26.41
2023-10-10T13:39:34.062Z,26.27
2023-10-10T13:42:40.128Z,26.03
2023-10-10T13:45:49.592Z,26.50
2023-10-10T13:48:56.206Z,26.62
2023-10-10T13:51:56.101Z,26.64
2023-10-10T13:55:03.942Z,27.22
2023-10-10T13:58:10.406Z,27.21
2023-10-10T14:01:24.720Z,27.43
2023-10-10T14:04:35.801Z,27.60
2023-10-10T14:07:42.130Z,27.73
2023-10-10T14:10:58.185Z,27.61
2023-10-10T14:14:08.473Z,27.49
2023-10-10T14:17:14.461Z,27.69
2023-10-10T14:20:28.946Z,27.99
2023-10-10T14:23:38.396Z,28.20
2023-10-10T14:26:43.724Z,28.44
2023-10-10T14:29:51.900Z,28.63
2023-10-10T14:33:00.667Z,28.66
2023-10-10T14:36:01.282Z,28.83
2023-10-10T14:38:51.820Z,29.06
2023-10-10T14:41:44.005Z,29.08
2023-10-10T14:44:36.367Z,29.30
2023-10-10T14:47:44.283Z,29.41
2023-10-10T14:50:57.211Z,29.62
2023-10-10T14:54:03.959Z,29.82
2023-10-10T14:57:09.974Z,29.98
2023-10-10T15:00:18.155Z,30.43
2023-10-10T15:03:24.938Z,30.71
2023-10-10T15:06:30.888Z,30.66
2023-10-10T15:09:36.688Z,30.93
2023-10-10T15:12:42.388Z,31.22
2023-10-10T15:15:49.779Z,31.47
2023-10-10T15:18:57.694Z,31.54
2023-10-10T15:22:03.607Z,31.67
2023-10-10T15:25:11.204Z,31.79
2023-10-10T15:28:19.308Z,32.02
2023-10-10T15:31:25.058Z,32.23
2023-10-10T15:34:31.380Z,32.40
2023-10-10T15:37:38.774Z,32.56
2023-10-10T15:40:51.195Z,32.76
2023-10-10T15:43:57.029Z,32.77
2023-10-10T15:47:05.553Z,33.01
2023-10-10T15:50:13.497Z,33.16
2023-10-10T15:53:20.325Z,33.41
2023-10-10T15:56:29.135Z,33.56
2023-10-10T15:59:35.498Z,33.72
2023-10-10T16:02:42.992Z,33.88
2023-10-10T16:05:56.171Z,33.86
2023-10-10T16:09:06.769Z,33.95
2023-10-10T16:12:14.400Z,33.96
2023-10-10T16:15:31.048Z,34.10
2023-10-10T16:18:30.610Z,34.10
2023-10-10T16:21:36.463Z,34.48
2023-10-10T16:24:44.221Z,34.54
2023-10-10T16:27:57.627Z,34.88
2023-10-10T16:31:03.791Z,34.94
2023-10-10T16:34:13.712Z,34.97
2023-10-10T16:37:29.708Z,35.11
2023-10-10T16:40:40.418Z,35.13
2023-10-10T16:43:58.645Z,35.01
2023-10-10T16:46:55.092Z,34.98
2023-10-10T16:50:01.881Z,34.98
2023-10-10T16:53:11.417Z,35.00
2023-10-10T16:56:26.007Z,35.17
2023-10-10T16:59:13.741Z,35.29
2023-10-10T17:02:07.260Z,35.40
2023-10-10T17:05:00.139Z,35.72
2023-10-10T17:08:05.599Z,35.54
2023-10-10T17:11:19.608Z,35.55
2023-10-10T17:14:26.875Z,35.75
2023-10-10T17:17:33.283Z,35.81
2023-10-10T17:20:39.795Z,35.86
2023-10-10T17:23:47.070Z,36.02
2023-10-10T17:26:53.913Z,36.13
2023-10-10T17:30:05.540Z,36.26
2023-10-10T17:33:12.178Z,36.38
2023-10-10T17:36:17.888Z,36.46
2023-10-10T17:39:23.763Z,36.73
2023-10-10T17:42:22.557Z,36.89
2023-10-10T17:45:20.016Z,37.12
2023-10-10T17:48:28.881Z,37.19
2023-10-10T17:51:39.987Z,37.00
2023-10-10T17:54:47.202Z,36.76
2023-10-10T17:57:52.218Z,36.71
2023-10-10T18:01:00.412Z,36.82
2023-10-10T18:04:06.572Z,36.70
2023-10-10T18:07:13.353Z,36.58
2023-10-10T18:10:21.231Z,36.59
2023-10-10T18:13:26.659Z,37.00
2023-10-10T18:16:34.249Z,37.03
2023-10-10T18:19:39.540Z,37.03
2023-10-10T18:22:47.473Z,37.17
2023-10-10T18:25:53.615Z,37.28
2023-10-10T18:29:02.831Z,37.56
2023-10-10T18:32:10.944Z,37.74
2023-10-10T18:35:19.974Z,37.61
2023-10-10T18:38:27.890Z,37.93
2023-10-10T18:41:31.217Z,38.22
2023-10-10T18:44:18.017Z,38.47
2023-10-10T18:47:10.404Z,38.91
2023-10-10T18:49:56.552Z,38.89
2023-10-10T18:52:49.831Z,39.04
2023-10-10T18:55:43.461Z,38.98
2023-10-10T18:58:50.958Z,38.89
2023-10-10T19:01:56.640Z,38.70
2023-10-10T19:05:04.236Z,38.90
2023-10-10T19:08:12.772Z,39.08
2023-10-10T19:11:19.258Z,39.41
2023-10-10T19:14:24.851Z,39.79
2023-10-10T19:17:30.539Z,40.08
2023-10-10T19:20:39.831Z,40.46
2023-10-10T19:23:46.402Z,40.69
2023-10-10T19:26:54.628Z,40.69
2023-10-10T19:30:00.890Z,40.71
2023-10-10T19:33:09.177Z,40.90
2023-10-10T19:36:15.866Z,41.12
2023-10-10T19:39:23.591Z,41.50
2023-10-10T19:42:29.585Z,41.80
2023-10-10T19:45:37.464Z,42.10
2023-10-10T19:48:44.489Z,42.17
2023-10-10T19:51:52.732Z,42.56
2023-10-10T19:55:12.648Z,42.55
2023-10-10T19:58:07.008Z,42.72
2023-10-10T20:01:13.371Z,43.03
2023-10-10T20:04:22.529Z,43.36
2023-10-10T20:07:29.076Z,43.46
2023-10-10T20:10:36.243Z,43.64
2023-10-10T20:13:40.953Z,43.92
2023-10-10T20:16:46.944Z,44.21
2023-10-10T20:19:54.105Z,44.27
2023-10-10T20:23:07.131Z,44.27
2023-10-10T20:26:14.822Z,44.02
2023-10-10T20:29:23.582Z,44.22
2023-10-10T20:32:29.992Z,44.72
2023-10-10T20:35:40.865Z,44.86
2023-10-10T20:38:47.996Z,44.81
2023-10-10T20:41:56.810Z,45.10
2023-10-10T20:45:04.307Z,44.97
2023-10-10T20:48:11.359Z,44.98
2023-10-10T20:51:17.772Z,44.95
2023-10-10T20:54:24.490Z,44.94
2023-10-10T20:57:32.576Z,44.99
2023-10-10T21:00:43.035Z,44.97
2023-10-10T21:03:48.587Z,45.04
2023-10-10T21:06:55.468Z,45.33
2023-10-10T21:10:01.866Z,45.59
2023-10-10T21:13:10.243Z,46.11
2023-10-10T21:16:17.674Z,46.11
2023-10-10T21:19:24.032Z,46.41
2023-10-10T21:22:30.823Z,46.50
2023-10-10T21:25:37.939Z,46.40
2023-10-10T21:28:45.117Z,46.29
2023-10-10T21:31:50.734Z,46.26
2023-10-10T21:34:58.277Z,46.50
2023-10-10T21:38:06.395Z,46.54
2023-10-10T21:41:19.193Z,46.70
2023-10-10T21:44:27.655Z,46.96
2023-10-10T21:47:32.825Z,47.20
2023-10-10T21:50:38.518Z,47.50
2023-10-10T21:53:44.902Z,47.22
2023-10-10T21:56:51.173Z,47.21
2023-10-10T21:59:58.672Z,47.16
2023-10-10T22:03:13.356Z,47.22
2023-10-10T22:06:20.236Z,47.58
2023-10-10T22:09:25.794Z,47.57
2023-10-10T22:12:31.912Z,47.85
2023-10-10T22:15:40.491Z,47.95
2023-10-10T22:18:46.703Z,47.88
2023-10-10T22:21:54.623Z,48.01
2023-10-10T22:24:59.842Z,47.63
2023-10-10T22:28:08.368Z,47.52
2023-10-10T22:31:14.430Z,47.74
2023-10-10T22:34:20.455Z,47.76
2023-10-10T22:37:26.725Z,48.08
2023-10-10T22:40:35.883Z,48.44
2023-10-10T22:43:44.357Z,48.46
2023-10-10T22:46:51.634Z,48.71
2023-10-10T22:49:57.615Z,48.87
2023-10-10T22:53:09.684Z,48.77
2023-10-10T22:56:15.099Z,48.93
2023-10-10T22:59:21.168Z,48.98
2023-10-10T23:02:27.473Z,49.03
2023-10-10T23:05:33.690Z,49.01
2023-10-10T23:08:38.778Z,49.21
2023-10-10T23:11:45.426Z,49.44
2023-10-10T23:14:53.073Z,49.48
2023-10-10T23:18:01.596Z,49.64
2023-10-10T23:21:07.359Z,49.59
2023-10-10T23:24:17.654Z,49.68
2023-10-10T23:27:25.866Z,49.89
2023-10-10T23:30:34.592Z,50.00
2023-10-10T23:33:41.669Z,49.71
2023-10-10T23:36:41.972Z,49.59
2023-10-10T23:39:50.283Z,49.64
2023-10-10T23:42:59.024Z,50.08
2023-10-10T23:46:06.977Z,50.40
2023-10-10T23:49:15.286Z,51.01
2023-10-10T23:52:24.227Z,50.77
2023-10-10T23:55:30.247Z,50.69
2023-10-10T23:58:37.174Z,50.47
